Huvudsida
METAR-TAF:

METAR-TAF

Flygplatser :

Milano-Malpensa flygplats

Milano, Italien

latitud: 45-37N, longitud: 008-44E, höjd: 234 m

Aktuellt väderrapport

Denna rapport gjordes för 36 minuter sedan, klockan 21:20 UTC
Vind 5 kt från nord
Temperatur 1°C
Fuktighet 100%
Tryck 1019 hPa
Sikt: 7000 m

METAR: LIMC 262120Z 01005KT 7000 NSC 01/01 Q1019 NOSIG

Tid: 22:56 (21:56 UTC)

Väderprognos

Denna rapport gjordes för 4 timmar och 38 minuter sedan, klockan 17:18 UTC
Prognos gäller från 26 kl. 18 UTC till 27 kl. 24 UTC
Vind 5 kt varierande vindriktning
Sikt: 8000 m
Spridda moln på en höjd av 6000 ft
Temporärt
från 26 kl. 22 UTC till 27 kl. 08 UTC
Sikt: 1500 m
dimbankar
Temporärt
från 27 kl. 16 UTC till 27 kl. 20 UTC
Sikt: 4000 m
duggregn

TAF: LIMC 261718Z 2618/2724 VRB05KT 8000 SCT060 TEMPO 2622/2708 1500 BCFG TEMPO 2716/2720 4000 DZ

Aktuella väderrapporter och prognoser från 4000 flygplatser (METAR- och TAF-rapporter).

De tillgängliga stationerna syns som gula och röda prickar på kartan.

För musen över prickarna för att se namnen på stationerna.

Klicka sedan för att få väderrapporter och prognoser.

För att ändra kartan: Klicka på de gröna knapparna med ett svart kors på för att zooma in; den gröna knappen med ett streck på för att zooma ut; eller på de gröna pilarna för angränsande kartor.


METAR-TAF: